createdAt,value
2019-02-20T00:05:23.078Z,3.43
2019-02-20T00:07:52.579Z,4.08
2019-02-20T00:10:22.115Z,4.20
2019-02-20T00:12:51.623Z,3.17
2019-02-20T00:15:21.163Z,4.13
2019-02-20T00:17:50.635Z,3.52
2019-02-20T00:20:20.105Z,4.60
2019-02-20T00:22:49.851Z,3.80
2019-02-20T00:28:21.745Z,4.12
2019-02-20T00:30:51.221Z,4.00
2019-02-20T00:33:40.019Z,5.10
2019-02-20T00:36:28.546Z,4.00
2019-02-20T00:38:58.111Z,4.87
2019-02-20T00:41:46.751Z,4.15
2019-02-20T00:44:23.655Z,3.63
2019-02-20T00:47:12.170Z,4.80
2019-02-20T00:49:45.378Z,3.72
2019-02-20T00:52:35.538Z,4.50
2019-02-20T00:58:19.928Z,4.00
2019-02-20T01:00:49.886Z,3.45
2019-02-20T01:03:20.299Z,4.20
2019-02-20T01:05:50.056Z,4.20
2019-02-20T01:08:19.991Z,4.72
2019-02-20T01:10:50.241Z,4.10
2019-02-20T01:13:20.014Z,4.50
2019-02-20T01:15:50.071Z,4.12
2019-02-20T01:18:20.138Z,4.92
2019-02-20T01:20:50.114Z,4.58
2019-02-20T01:23:20.219Z,4.00
2019-02-20T01:25:50.147Z,6.60
2019-02-20T01:28:20.090Z,4.77
2019-02-20T01:30:50.103Z,4.65
2019-02-20T01:33:20.136Z,4.15
2019-02-20T01:36:03.524Z,4.67
2019-02-20T01:38:33.057Z,7.03
2019-02-20T01:41:14.514Z,5.00
2019-02-20T01:46:26.168Z,4.13
2019-02-20T01:48:55.646Z,4.57
2019-02-20T01:51:25.107Z,4.95
2019-02-20T01:53:54.578Z,3.63
2019-02-20T01:56:24.044Z,4.77
2019-02-20T01:58:53.533Z,4.67
2019-02-20T02:01:23.001Z,4.37
2019-02-20T02:03:52.538Z,3.93
2019-02-20T02:06:22.286Z,5.22
2019-02-20T02:08:51.749Z,4.53
2019-02-20T02:11:21.298Z,5.30
2019-02-20T02:13:50.889Z,4.40
2019-02-20T02:16:41.000Z,4.43
2019-02-20T02:19:10.831Z,4.80
2019-02-20T02:21:40.307Z,5.33
2019-02-20T02:24:09.807Z,5.23
2019-02-20T02:26:39.275Z,5.57
2019-02-20T02:29:08.790Z,5.20
2019-02-20T02:31:38.264Z,5.33
2019-02-20T02:34:07.834Z,5.57
2019-02-20T02:36:37.321Z,3.90
2019-02-20T02:39:06.859Z,4.47
2019-02-20T02:41:37.948Z,4.30
2019-02-20T02:44:07.474Z,3.97
2019-02-20T02:46:37.162Z,4.57
2019-02-20T02:49:06.736Z,4.47
2019-02-20T02:51:48.165Z,5.47
2019-02-20T02:54:17.739Z,4.17
2019-02-20T02:56:47.217Z,4.60
2019-02-20T02:59:37.631Z,5.47
2019-02-20T03:02:26.366Z,5.40
2019-02-20T03:04:55.855Z,4.72
2019-02-20T03:07:25.313Z,4.60
2019-02-20T03:09:54.997Z,5.80
2019-02-20T03:12:24.491Z,4.97
2019-02-20T03:14:53.992Z,4.90
2019-02-20T03:17:23.533Z,4.03
2019-02-20T03:19:53.030Z,4.70
2019-02-20T03:22:22.564Z,4.90
2019-02-20T03:24:52.046Z,5.50
2019-02-20T03:30:29.380Z,5.35
2019-02-20T03:32:58.870Z,4.97
2019-02-20T03:35:28.560Z,5.08
2019-02-20T03:37:58.066Z,5.83
2019-02-20T03:40:27.547Z,5.30
2019-02-20T03:42:57.057Z,4.15
2019-02-20T03:45:45.622Z,4.63
2019-02-20T03:48:15.149Z,5.17
2019-02-20T03:50:44.717Z,4.50
2019-02-20T03:53:14.208Z,5.40
2019-02-20T03:55:43.700Z,4.97
2019-02-20T03:58:13.372Z,4.20
2019-02-20T04:00:42.851Z,4.87
2019-02-20T04:03:12.323Z,4.40
2019-02-20T04:06:02.072Z,4.80
2019-02-20T04:08:31.514Z,5.30
2019-02-20T04:14:01.862Z,5.10
2019-02-20T04:16:31.438Z,4.70
2019-02-20T04:21:42.630Z,4.30
2019-02-20T04:24:12.136Z,4.73
2019-02-20T04:26:41.618Z,4.50
2019-02-20T04:29:11.113Z,5.30
2019-02-20T04:31:40.589Z,4.00
2019-02-20T04:34:10.071Z,5.23
2019-02-20T04:36:39.557Z,4.33
2019-02-20T04:39:09.060Z,5.40
2019-02-20T04:41:38.565Z,4.43
2019-02-20T04:44:08.052Z,4.20
2019-02-20T04:46:37.564Z,4.83
2019-02-20T04:49:07.101Z,5.00
2019-02-20T04:51:36.609Z,5.23
2019-02-20T04:57:20.059Z,5.60
2019-02-20T05:02:52.068Z,5.20
2019-02-20T05:05:22.166Z,4.78
2019-02-20T05:07:52.164Z,3.90
2019-02-20T05:10:22.191Z,4.80
2019-02-20T05:12:51.659Z,5.30
2019-02-20T05:15:21.196Z,4.95
2019-02-20T05:17:50.657Z,5.57
2019-02-20T05:20:21.775Z,4.93
2019-02-20T05:22:51.239Z,5.67
2019-02-20T05:25:20.772Z,6.03
2019-02-20T05:27:50.261Z,5.73
2019-02-20T05:30:19.772Z,4.90
2019-02-20T05:32:49.330Z,5.80
2019-02-20T05:35:18.883Z,5.53
2019-02-20T05:37:48.338Z,6.65
2019-02-20T05:40:17.811Z,6.17
2019-02-20T05:42:48.378Z,5.60
2019-02-20T05:45:24.202Z,5.90
2019-02-20T05:47:53.706Z,5.35
2019-02-20T05:50:23.216Z,7.20
2019-02-20T05:52:52.734Z,5.33
2019-02-20T05:55:22.266Z,6.90
2019-02-20T05:57:53.362Z,7.43
2019-02-20T06:00:22.845Z,6.12
2019-02-20T06:02:52.324Z,5.63
2019-02-20T06:05:22.006Z,6.45
2019-02-20T06:07:51.480Z,7.10
2019-02-20T06:10:20.974Z,6.93
2019-02-20T06:12:50.442Z,7.20
2019-02-20T06:15:19.928Z,7.20
2019-02-20T06:17:49.396Z,7.13
2019-02-20T06:20:37.928Z,6.77
2019-02-20T06:23:07.827Z,6.12
2019-02-20T06:25:37.895Z,7.95
2019-02-20T06:28:09.129Z,7.90
2019-02-20T06:30:38.647Z,7.13
2019-02-20T06:33:08.115Z,7.37
2019-02-20T06:35:37.725Z,7.47
2019-02-20T06:38:10.538Z,7.22
2019-02-20T06:40:57.642Z,6.80
2019-02-20T06:43:27.086Z,7.50
2019-02-20T06:45:56.580Z,8.70
2019-02-20T06:48:26.057Z,8.00
2019-02-20T06:50:55.558Z,8.87
2019-02-20T06:53:25.055Z,8.10
2019-02-20T06:55:54.559Z,8.17
2019-02-20T06:58:30.027Z,11.00
2019-02-20T07:00:59.495Z,9.50
2019-02-20T07:03:29.011Z,10.10
2019-02-20T07:06:37.008Z,9.53
2019-02-20T07:09:17.510Z,8.18
2019-02-20T07:12:25.555Z,10.50
2019-02-20T07:15:21.829Z,9.50
2019-02-20T07:18:29.876Z,9.87
2019-02-20T07:21:22.723Z,8.63
2019-02-20T07:24:14.856Z,8.10
2019-02-20T07:27:22.900Z,8.60
2019-02-20T07:30:11.647Z,8.33
2019-02-20T07:32:41.190Z,10.73
2019-02-20T07:35:11.301Z,8.47
2019-02-20T07:37:40.794Z,8.27
2019-02-20T07:40:11.848Z,9.23
2019-02-20T07:42:41.349Z,9.90
2019-02-20T07:48:13.793Z,9.10
2019-02-20T07:50:44.963Z,8.77
2019-02-20T07:53:14.454Z,9.30
2019-02-20T07:55:43.977Z,8.63
2019-02-20T07:58:13.560Z,8.50
2019-02-20T08:00:43.063Z,9.20
2019-02-20T08:03:12.533Z,9.73
2019-02-20T08:05:49.253Z,10.00
2019-02-20T08:08:19.268Z,8.70
2019-02-20T08:10:49.138Z,10.43
2019-02-20T08:13:19.119Z,10.03
2019-02-20T08:15:49.149Z,8.20
2019-02-20T08:18:19.125Z,9.80
2019-02-20T08:23:30.842Z,10.53
2019-02-20T08:26:00.347Z,10.28
2019-02-20T08:28:29.812Z,8.70
2019-02-20T08:30:59.305Z,10.13
2019-02-20T08:33:28.803Z,9.90
2019-02-20T08:35:58.327Z,11.53
2019-02-20T08:38:27.834Z,9.97
2019-02-20T08:40:57.337Z,11.80
2019-02-20T08:43:26.804Z,10.30
2019-02-20T08:45:57.928Z,11.10
2019-02-20T08:51:15.917Z,10.37
2019-02-20T08:53:45.468Z,10.17
2019-02-20T08:56:15.055Z,10.73
2019-02-20T08:58:44.535Z,8.90
2019-02-20T09:01:14.029Z,9.95
2019-02-20T09:03:43.561Z,10.77
2019-02-20T09:06:13.102Z,9.70
2019-02-20T09:08:42.564Z,10.10
2019-02-20T09:11:12.051Z,10.55
2019-02-20T09:13:41.545Z,10.17
2019-02-20T09:16:11.039Z,11.80
2019-02-20T09:18:40.505Z,10.70
2019-02-20T09:21:10.002Z,9.63
2019-02-20T09:23:39.490Z,10.80
2019-02-20T09:26:21.128Z,11.87
2019-02-20T09:29:09.926Z,10.03
2019-02-20T09:31:39.490Z,10.40
2019-02-20T09:34:09.514Z,10.45
2019-02-20T09:36:39.360Z,10.77
2019-02-20T09:39:29.879Z,10.32
2019-02-20T09:41:59.415Z,10.47
2019-02-20T09:44:30.716Z,9.45
2019-02-20T09:47:00.245Z,10.33
2019-02-20T09:49:35.170Z,9.03
2019-02-20T09:52:04.899Z,10.03
2019-02-20T09:57:55.714Z,10.08
2019-02-20T10:00:25.279Z,10.00
2019-02-20T10:05:57.362Z,9.73
2019-02-20T10:08:28.476Z,8.30
2019-02-20T10:10:57.961Z,10.07
2019-02-20T10:13:27.458Z,10.63
2019-02-20T10:15:57.131Z,10.20
2019-02-20T10:21:26.568Z,10.37
2019-02-20T10:23:56.079Z,11.10
2019-02-20T10:26:25.668Z,9.70
2019-02-20T10:28:55.134Z,9.00
2019-02-20T10:31:24.715Z,9.83
2019-02-20T10:34:15.071Z,8.08
2019-02-20T10:36:44.559Z,9.80
2019-02-20T10:39:14.045Z,10.00
2019-02-20T10:41:43.527Z,12.40
2019-02-20T10:44:13.010Z,10.37
2019-02-20T10:46:42.491Z,10.60
2019-02-20T10:49:11.955Z,10.40
2019-02-20T10:51:41.664Z,10.00
2019-02-20T10:54:11.211Z,8.80
2019-02-20T10:56:40.995Z,8.90
2019-02-20T10:59:10.962Z,8.93
2019-02-20T11:01:40.979Z,9.95
2019-02-20T11:04:11.061Z,11.38
2019-02-20T11:06:41.107Z,11.20
2019-02-20T11:09:11.107Z,11.73
2019-02-20T11:14:23.895Z,11.40
2019-02-20T11:16:53.490Z,9.00
2019-02-20T11:19:23.036Z,9.28
2019-02-20T11:21:54.149Z,8.10
2019-02-20T11:27:23.585Z,9.35
2019-02-20T11:29:53.098Z,7.62
2019-02-20T11:32:22.648Z,8.10
2019-02-20T11:35:11.651Z,7.70
2019-02-20T11:37:41.601Z,7.83
2019-02-20T11:40:11.567Z,8.30
2019-02-20T11:42:41.585Z,7.47
2019-02-20T11:45:11.661Z,7.30
2019-02-20T11:47:42.779Z,7.90
2019-02-20T11:50:12.556Z,8.83
2019-02-20T11:52:42.245Z,5.90
2019-02-20T11:55:11.938Z,6.80
2019-02-20T11:58:01.189Z,6.87
2019-02-20T12:00:30.734Z,6.00
2019-02-20T12:05:43.327Z,6.50
2019-02-20T12:08:18.940Z,6.80
2019-02-20T12:11:07.571Z,5.50
2019-02-20T12:13:56.428Z,5.70
2019-02-20T12:16:27.262Z,5.80
2019-02-20T12:19:16.266Z,6.20
2019-02-20T12:21:45.763Z,5.53
2019-02-20T12:24:15.329Z,7.97
2019-02-20T12:26:45.094Z,5.40
2019-02-20T12:29:14.590Z,6.00
2019-02-20T12:31:52.098Z,4.50
2019-02-20T12:37:09.303Z,4.93
2019-02-20T12:39:58.029Z,4.00
2019-02-20T12:42:27.613Z,3.80
2019-02-20T12:44:58.566Z,5.30
2019-02-20T12:47:33.803Z,4.27
2019-02-20T12:50:03.275Z,3.83
2019-02-20T12:52:32.899Z,4.40
2019-02-20T12:55:02.376Z,4.10
2019-02-20T12:57:31.929Z,3.83
2019-02-20T13:00:01.399Z,4.07
2019-02-20T13:02:32.512Z,4.77
2019-02-20T13:05:21.266Z,4.40
2019-02-20T13:07:50.750Z,4.30
2019-02-20T13:13:02.243Z,5.07
2019-02-20T13:15:31.730Z,3.75
2019-02-20T13:18:01.200Z,4.40
2019-02-20T13:20:30.756Z,3.30
2019-02-20T13:23:00.237Z,3.77
2019-02-20T13:25:29.848Z,4.00
2019-02-20T13:27:59.309Z,3.77
2019-02-20T13:30:41.291Z,4.50
2019-02-20T13:33:10.766Z,3.50
2019-02-20T13:35:40.291Z,4.50
2019-02-20T13:38:09.780Z,3.10
2019-02-20T13:40:39.258Z,3.77
2019-02-20T13:43:08.842Z,4.27
2019-02-20T13:45:38.341Z,4.10
2019-02-20T13:48:08.003Z,4.37
2019-02-20T13:50:37.509Z,3.90
2019-02-20T13:53:06.991Z,3.98
2019-02-20T13:55:36.548Z,3.80
2019-02-20T13:58:06.087Z,4.20
2019-02-20T14:00:35.715Z,3.83
2019-02-20T14:03:26.029Z,4.50
2019-02-20T14:05:55.519Z,3.90
2019-02-20T14:08:25.012Z,3.42
2019-02-20T14:10:54.756Z,3.40
2019-02-20T14:13:24.198Z,4.40
2019-02-20T14:15:55.376Z,3.43
2019-02-20T14:18:24.864Z,3.53
2019-02-20T14:20:54.456Z,5.57
2019-02-20T14:23:23.952Z,6.27
2019-02-20T14:25:53.476Z,5.03
2019-02-20T14:28:42.247Z,5.50
2019-02-20T14:31:12.423Z,6.42
2019-02-20T14:33:42.447Z,3.25
2019-02-20T14:36:12.614Z,3.35
2019-02-20T14:38:42.390Z,3.62
2019-02-20T14:41:12.430Z,3.43
2019-02-20T14:43:42.396Z,3.50
2019-02-20T14:46:12.479Z,4.03
2019-02-20T14:48:42.447Z,3.80
2019-02-20T14:51:12.571Z,3.80
2019-02-20T14:53:42.518Z,3.75
2019-02-20T14:56:12.459Z,3.45
2019-02-20T14:58:42.498Z,2.75
2019-02-20T15:01:31.114Z,3.13
2019-02-20T15:04:00.640Z,4.70
2019-02-20T15:06:49.583Z,3.10
2019-02-20T15:09:19.071Z,3.40
2019-02-20T15:14:29.995Z,4.03
2019-02-20T15:16:59.581Z,3.87
2019-02-20T15:19:29.055Z,3.27
2019-02-20T15:21:58.648Z,7.80
2019-02-20T15:24:28.199Z,3.70
2019-02-20T15:27:03.943Z,3.97
2019-02-20T15:29:40.470Z,3.87
2019-02-20T15:32:10.056Z,4.17
2019-02-20T15:34:39.955Z,4.13
2019-02-20T15:37:09.484Z,3.70
2019-02-20T15:39:39.137Z,3.97
2019-02-20T15:42:35.200Z,4.83
2019-02-20T15:45:24.310Z,5.97
2019-02-20T15:48:22.893Z,4.17
2019-02-20T15:50:53.053Z,5.07
2019-02-20T15:53:28.018Z,4.75
2019-02-20T15:55:57.491Z,4.60
2019-02-20T16:01:48.201Z,5.10
2019-02-20T16:04:17.676Z,4.50
2019-02-20T16:06:47.144Z,4.30
2019-02-20T16:09:16.625Z,4.10
2019-02-20T16:11:46.149Z,4.47
2019-02-20T16:14:34.675Z,5.53
2019-02-20T16:17:04.180Z,5.23
2019-02-20T16:19:33.728Z,4.70
2019-02-20T16:22:03.265Z,4.70
2019-02-20T16:24:32.823Z,4.53
2019-02-20T16:27:02.420Z,4.57
2019-02-20T16:29:32.081Z,5.10
2019-02-20T16:32:01.556Z,4.53
2019-02-20T16:34:31.161Z,4.20
2019-02-20T16:37:00.652Z,4.80
2019-02-20T16:39:30.249Z,4.93
2019-02-20T16:41:59.719Z,5.97
2019-02-20T16:44:34.807Z,4.50
2019-02-20T16:47:04.298Z,5.20
2019-02-20T16:49:34.008Z,6.00
2019-02-20T16:52:03.471Z,5.00
2019-02-20T16:54:52.163Z,5.13
2019-02-20T16:57:21.654Z,5.20
2019-02-20T16:59:51.581Z,4.47
2019-02-20T17:02:21.019Z,4.77
2019-02-20T17:04:50.650Z,5.42
2019-02-20T17:07:20.304Z,5.10
2019-02-20T17:09:50.004Z,5.57
2019-02-20T17:12:19.499Z,4.17
2019-02-20T17:14:49.022Z,4.80
2019-02-20T17:17:18.580Z,5.47
2019-02-20T17:19:48.168Z,6.93
2019-02-20T17:22:17.749Z,5.57
2019-02-20T17:24:47.433Z,5.35
2019-02-20T17:27:16.917Z,5.27
2019-02-20T17:29:46.419Z,6.30
2019-02-20T17:32:15.933Z,5.30
2019-02-20T17:34:45.531Z,5.83
2019-02-20T17:37:14.995Z,6.80
2019-02-20T17:39:44.699Z,5.37
2019-02-20T17:42:14.166Z,5.97
2019-02-20T17:44:43.751Z,6.33
2019-02-20T17:47:53.093Z,6.10
2019-02-20T17:53:03.499Z,6.83
2019-02-20T17:55:33.003Z,8.07
2019-02-20T17:58:02.723Z,6.85
2019-02-20T18:00:32.450Z,8.50
2019-02-20T18:03:07.846Z,7.80
2019-02-20T18:05:37.430Z,6.90
2019-02-20T18:08:06.909Z,8.50
2019-02-20T18:10:36.468Z,8.40
2019-02-20T18:13:05.978Z,7.30
2019-02-20T18:15:35.569Z,8.40
2019-02-20T18:18:05.093Z,11.30
2019-02-20T18:20:34.599Z,8.33
2019-02-20T18:23:04.097Z,8.60
2019-02-20T18:25:33.592Z,8.78
2019-02-20T18:28:03.076Z,9.60
2019-02-20T18:30:34.268Z,10.73
2019-02-20T18:33:03.953Z,11.15
2019-02-20T18:35:33.514Z,10.80
2019-02-20T18:38:03.012Z,10.60
2019-02-20T18:40:51.854Z,10.00
2019-02-20T18:43:21.337Z,11.00
2019-02-20T18:45:50.843Z,11.17
2019-02-20T18:48:20.350Z,11.63
2019-02-20T18:50:49.839Z,10.82
2019-02-20T18:53:19.320Z,10.07
2019-02-20T18:55:48.819Z,11.38
2019-02-20T18:58:19.037Z,12.53
2019-02-20T19:00:54.808Z,10.80
2019-02-20T19:03:24.589Z,12.60
2019-02-20T19:06:13.193Z,11.60
2019-02-20T19:09:03.499Z,11.37
2019-02-20T19:11:55.986Z,10.90
2019-02-20T19:15:04.044Z,11.00
2019-02-20T19:18:10.567Z,11.67
2019-02-20T19:21:18.703Z,11.20
2019-02-20T19:24:26.827Z,10.90
2019-02-20T19:27:34.980Z,12.80
2019-02-20T19:30:30.326Z,13.83
2019-02-20T19:33:08.470Z,11.13
2019-02-20T19:36:04.592Z,11.68
2019-02-20T19:39:12.980Z,13.10
2019-02-20T19:42:28.236Z,11.80
2019-02-20T19:45:22.106Z,12.37
2019-02-20T19:48:30.198Z,14.10
2019-02-20T19:51:38.287Z,12.20
2019-02-20T19:54:32.965Z,13.07
2019-02-20T19:57:19.192Z,12.70
2019-02-20T19:59:56.347Z,14.63
2019-02-20T20:03:04.359Z,15.00
2019-02-20T20:06:06.297Z,13.00
2019-02-20T20:09:14.355Z,12.10
2019-02-20T20:12:22.402Z,15.00
2019-02-20T20:15:30.456Z,13.70
2019-02-20T20:18:38.499Z,15.23
2019-02-20T20:21:46.587Z,13.28
2019-02-20T20:24:54.671Z,13.67
2019-02-20T20:28:02.698Z,13.50
2019-02-20T20:30:58.387Z,13.83
2019-02-20T20:34:06.534Z,12.77
2019-02-20T20:37:09.153Z,15.40
2019-02-20T20:39:45.781Z,13.60
2019-02-20T20:42:53.924Z,14.93
2019-02-20T20:46:02.440Z,14.53
2019-02-20T20:51:54.934Z,14.17
2019-02-20T20:54:47.885Z,14.00
2019-02-20T20:57:39.947Z,16.20
2019-02-20T21:00:24.462Z,17.10
2019-02-20T21:03:01.933Z,15.03
2019-02-20T21:06:09.979Z,16.20
2019-02-20T21:08:46.363Z,16.77
2019-02-20T21:12:10.265Z,15.80
2019-02-20T21:15:17.880Z,17.65
2019-02-20T21:18:11.820Z,19.10
2019-02-20T21:21:19.866Z,17.07
2019-02-20T21:24:14.927Z,17.00
2019-02-20T21:27:22.986Z,17.10
2019-02-20T21:30:32.453Z,18.40
2019-02-20T21:33:40.520Z,17.20
2019-02-20T21:36:48.597Z,16.47
2019-02-20T21:39:56.629Z,18.63
2019-02-20T21:43:04.724Z,18.17
2019-02-20T21:45:56.307Z,17.70
2019-02-20T21:48:33.990Z,18.53
2019-02-20T21:51:15.068Z,18.57
2019-02-20T21:54:09.506Z,18.23
2019-02-20T21:57:02.332Z,17.50
2019-02-20T22:00:10.451Z,18.53
2019-02-20T22:03:02.636Z,16.67
2019-02-20T22:05:55.459Z,18.37
2019-02-20T22:09:04.598Z,17.37
2019-02-20T22:12:14.307Z,17.73
2019-02-20T22:15:16.108Z,17.87
2019-02-20T22:18:24.159Z,16.05
2019-02-20T22:21:32.242Z,16.65
2019-02-20T22:24:40.398Z,16.45
2019-02-20T22:27:48.714Z,16.10
2019-02-20T22:30:56.752Z,16.50
2019-02-20T22:33:50.717Z,16.20
2019-02-20T22:36:48.048Z,15.90
2019-02-20T22:39:56.099Z,17.27
2019-02-20T22:43:04.151Z,18.37
2019-02-20T22:46:12.189Z,16.10
2019-02-20T22:49:20.263Z,16.67
2019-02-20T22:52:28.690Z,16.97
2019-02-20T22:55:36.753Z,15.90
2019-02-20T22:58:13.879Z,17.17
2019-02-20T23:01:21.908Z,18.30
2019-02-20T23:04:14.776Z,16.50
2019-02-20T23:10:19.783Z,16.95
2019-02-20T23:13:28.647Z,16.00
2019-02-20T23:15:58.333Z,15.28
2019-02-20T23:18:27.836Z,14.47
2019-02-20T23:20:57.331Z,15.33
2019-02-20T23:23:26.826Z,14.17
2019-02-20T23:25:57.960Z,18.05
2019-02-20T23:28:46.763Z,15.60
2019-02-20T23:31:16.338Z,15.37
2019-02-20T23:33:45.941Z,13.87
2019-02-20T23:36:34.530Z,14.77
2019-02-20T23:39:16.544Z,16.80
2019-02-20T23:41:46.031Z,13.93
2019-02-20T23:44:15.526Z,14.93
2019-02-20T23:46:45.021Z,16.97
2019-02-20T23:49:14.742Z,14.77
2019-02-20T23:51:44.221Z,14.93
2019-02-20T23:54:13.851Z,13.80
2019-02-20T23:56:43.450Z,14.30
2019-02-20T23:59:13.916Z,13.60
